createdAt,value
2022-10-23T00:01:43.794Z,13.82
2022-10-23T00:04:15.087Z,13.78
2022-10-23T00:06:43.462Z,13.72
2022-10-23T00:09:13.319Z,13.74
2022-10-23T00:11:41.680Z,13.68
2022-10-23T00:14:09.334Z,13.66
2022-10-23T00:16:37.165Z,13.67
2022-10-23T00:19:04.959Z,13.70
2022-10-23T00:21:32.503Z,13.67
2022-10-23T00:24:00.337Z,13.64
2022-10-23T00:26:27.835Z,13.62
2022-10-23T00:28:56.211Z,13.62
2022-10-23T00:31:25.064Z,13.68
2022-10-23T00:33:53.345Z,13.67
2022-10-23T00:36:21.623Z,13.72
2022-10-23T00:38:51.292Z,13.67
2022-10-23T00:41:25.365Z,13.70
2022-10-23T00:44:06.367Z,13.68
2022-10-23T00:46:34.966Z,13.67
2022-10-23T00:49:04.576Z,13.64
2022-10-23T00:51:38.631Z,13.60
2022-10-23T00:54:24.446Z,13.56
2022-10-23T00:56:59.441Z,13.49
2022-10-23T00:59:27.836Z,13.38
2022-10-23T01:01:55.484Z,13.24
2022-10-23T01:04:23.988Z,13.22
2022-10-23T01:06:57.654Z,13.18
2022-10-23T01:09:46.485Z,13.16
2022-10-23T01:12:34.541Z,13.14
2022-10-23T01:15:21.884Z,13.17
2022-10-23T01:18:02.380Z,13.19
2022-10-23T01:20:46.774Z,13.19
2022-10-23T01:23:38.727Z,13.20
2022-10-23T01:26:29.917Z,13.21
2022-10-23T01:29:15.126Z,13.17
2022-10-23T01:31:55.573Z,13.14
2022-10-23T01:34:30.821Z,13.11
2022-10-23T01:37:01.478Z,13.10
2022-10-23T01:39:37.032Z,13.10
2022-10-23T01:42:11.909Z,13.09
2022-10-23T01:44:44.912Z,13.06
2022-10-23T01:47:16.131Z,13.00
2022-10-23T01:49:47.674Z,12.95
2022-10-23T01:52:16.600Z,12.90
2022-10-23T01:54:46.465Z,12.90
2022-10-23T01:57:18.051Z,12.93
2022-10-23T01:59:51.836Z,12.92
2022-10-23T02:02:22.789Z,12.97
2022-10-23T02:04:59.487Z,13.06
2022-10-23T02:07:27.156Z,13.11
2022-10-23T02:09:54.982Z,13.13
2022-10-23T02:12:56.111Z,13.16
2022-10-23T02:15:41.475Z,13.22
2022-10-23T02:18:44.664Z,13.26
2022-10-23T02:21:17.643Z,13.28
2022-10-23T02:24:07.976Z,13.29
2022-10-23T02:26:49.150Z,13.31
2022-10-23T02:29:33.677Z,13.32
2022-10-23T02:32:02.252Z,13.37
2022-10-23T02:34:29.980Z,13.33
2022-10-23T02:36:57.733Z,13.36
2022-10-23T02:39:27.922Z,13.32
2022-10-23T02:42:28.154Z,13.32
2022-10-23T02:45:29.863Z,13.31
2022-10-23T02:48:19.193Z,13.28
2022-10-23T02:51:00.351Z,13.25
2022-10-23T02:53:33.483Z,13.20
2022-10-23T02:56:03.702Z,13.23
2022-10-23T02:58:34.084Z,13.13
2022-10-23T03:01:24.881Z,13.19
2022-10-23T03:03:56.773Z,13.20
2022-10-23T03:06:25.306Z,13.19
2022-10-23T03:08:57.809Z,13.18
2022-10-23T03:11:25.829Z,13.19
2022-10-23T03:13:53.522Z,13.19
2022-10-23T03:16:20.980Z,13.14
2022-10-23T03:18:50.410Z,13.16
2022-10-23T03:21:18.236Z,13.16
2022-10-23T03:23:45.671Z,13.16
2022-10-23T03:26:15.015Z,13.14
2022-10-23T03:28:42.891Z,13.11
2022-10-23T03:31:10.383Z,13.07
2022-10-23T03:33:38.933Z,13.07
2022-10-23T03:36:07.365Z,13.09
2022-10-23T03:38:35.236Z,13.04
2022-10-23T03:41:03.014Z,13.02
2022-10-23T03:43:30.708Z,13.06
2022-10-23T03:45:58.101Z,13.04
2022-10-23T03:48:25.968Z,13.00
2022-10-23T03:50:57.814Z,13.04
2022-10-23T03:53:25.318Z,13.03
2022-10-23T03:55:53.431Z,13.03
2022-10-23T03:58:21.106Z,13.06
2022-10-23T04:00:49.416Z,13.04
2022-10-23T04:03:17.095Z,12.93
2022-10-23T04:05:44.484Z,12.93
2022-10-23T04:08:14.189Z,12.94
2022-10-23T04:10:45.256Z,12.83
2022-10-23T04:13:12.859Z,12.79
2022-10-23T04:15:40.354Z,12.80
2022-10-23T04:18:08.087Z,12.78
2022-10-23T04:20:36.067Z,12.80
2022-10-23T04:23:03.528Z,12.77
2022-10-23T04:25:34.403Z,12.80
2022-10-23T04:28:01.880Z,12.74
2022-10-23T04:30:32.849Z,12.69
2022-10-23T04:33:00.707Z,12.65
2022-10-23T04:35:29.519Z,12.54
2022-10-23T04:37:57.303Z,12.53
2022-10-23T04:40:24.711Z,12.46
2022-10-23T04:42:52.984Z,12.37
2022-10-23T04:45:21.051Z,12.34
2022-10-23T04:47:48.451Z,12.31
2022-10-23T04:50:16.205Z,12.31
2022-10-23T04:53:04.298Z,12.37
2022-10-23T04:55:32.236Z,12.30
2022-10-23T04:58:04.262Z,12.33
2022-10-23T05:00:32.614Z,12.34
2022-10-23T05:03:00.078Z,12.32
2022-10-23T05:05:30.994Z,12.36
2022-10-23T05:07:59.412Z,12.34
2022-10-23T05:10:27.135Z,12.33
2022-10-23T05:12:55.143Z,12.40
2022-10-23T05:15:22.612Z,12.39
2022-10-23T05:17:53.584Z,12.46
2022-10-23T05:20:25.230Z,12.46
2022-10-23T05:22:55.575Z,12.47
2022-10-23T05:25:24.749Z,12.49
2022-10-23T05:27:52.827Z,12.50
2022-10-23T05:30:20.285Z,12.46
2022-10-23T05:32:48.553Z,12.43
2022-10-23T05:35:21.714Z,12.38
2022-10-23T05:37:51.892Z,12.44
2022-10-23T05:40:19.797Z,12.45
2022-10-23T05:42:48.165Z,12.37
2022-10-23T05:45:17.522Z,12.34
2022-10-23T05:47:46.390Z,12.34
2022-10-23T05:50:15.962Z,12.41
2022-10-23T05:52:49.091Z,12.31
2022-10-23T05:55:17.630Z,12.33
2022-10-23T05:57:46.518Z,12.25
2022-10-23T06:00:14.937Z,12.27
2022-10-23T06:02:42.370Z,12.25
2022-10-23T06:05:11.213Z,12.25
2022-10-23T06:07:39.670Z,12.26
2022-10-23T06:10:07.477Z,12.45
2022-10-23T06:12:35.821Z,12.59
2022-10-23T06:15:04.072Z,12.78
2022-10-23T06:17:33.011Z,12.79
2022-10-23T06:20:03.527Z,12.99
2022-10-23T06:22:33.630Z,12.88
2022-10-23T06:25:02.679Z,13.20
2022-10-23T06:27:30.457Z,13.45
2022-10-23T06:29:57.907Z,13.40
2022-10-23T06:32:25.635Z,13.30
2022-10-23T06:34:54.842Z,13.50
2022-10-23T06:37:22.236Z,13.21
2022-10-23T06:39:50.169Z,13.36
2022-10-23T06:42:17.761Z,13.50
2022-10-23T06:44:48.457Z,13.83
2022-10-23T06:47:18.270Z,13.90
2022-10-23T06:49:47.215Z,13.84
2022-10-23T06:52:34.940Z,13.74
2022-10-23T06:55:04.434Z,13.76
2022-10-23T06:57:32.232Z,13.91
2022-10-23T06:59:59.633Z,13.84
2022-10-23T07:02:27.523Z,13.84
2022-10-23T07:04:55.229Z,14.01
2022-10-23T07:07:22.827Z,14.07
2022-10-23T07:09:50.598Z,13.99
2022-10-23T07:12:20.332Z,13.91
2022-10-23T07:14:48.860Z,14.08
2022-10-23T07:17:16.750Z,14.17
2022-10-23T07:19:48.295Z,14.25
2022-10-23T07:22:16.287Z,14.23
2022-10-23T07:24:44.376Z,14.17
2022-10-23T07:27:12.092Z,14.11
2022-10-23T07:29:39.853Z,14.00
2022-10-23T07:32:07.336Z,13.88
2022-10-23T07:34:37.264Z,13.96
2022-10-23T07:37:06.006Z,13.88
2022-10-23T07:39:33.442Z,13.69
2022-10-23T07:42:01.007Z,13.71
2022-10-23T07:44:28.818Z,13.75
2022-10-23T07:46:56.392Z,13.87
2022-10-23T07:49:23.807Z,13.98
2022-10-23T07:51:53.976Z,14.13
2022-10-23T07:54:21.454Z,13.99
2022-10-23T07:56:50.419Z,14.27
2022-10-23T07:59:19.466Z,14.35
2022-10-23T08:01:50.536Z,14.52
2022-10-23T08:04:20.992Z,14.71
2022-10-23T08:06:49.138Z,14.57
2022-10-23T08:09:16.823Z,14.57
2022-10-23T08:11:44.608Z,14.73
2022-10-23T08:14:14.322Z,14.85
2022-10-23T08:16:42.680Z,14.92
2022-10-23T08:19:12.180Z,15.08
2022-10-23T08:21:40.470Z,15.49
2022-10-23T08:24:13.299Z,15.96
2022-10-23T08:26:41.399Z,15.75
2022-10-23T08:29:09.747Z,15.87
2022-10-23T08:31:37.394Z,16.14
2022-10-23T08:34:07.108Z,16.25
2022-10-23T08:36:36.461Z,16.35
2022-10-23T08:39:04.375Z,16.53
2022-10-23T08:41:37.638Z,15.98
2022-10-23T08:44:20.387Z,15.93
2022-10-23T08:46:56.275Z,15.85
2022-10-23T08:49:49.793Z,15.93
2022-10-23T08:52:25.014Z,16.36
2022-10-23T08:55:22.800Z,16.41
2022-10-23T08:58:06.546Z,16.10
2022-10-23T09:00:34.622Z,16.21
2022-10-23T09:03:05.381Z,16.13
2022-10-23T09:05:37.118Z,15.98
2022-10-23T09:08:42.267Z,16.07
2022-10-23T09:11:30.716Z,16.14
2022-10-23T09:14:16.922Z,16.10
2022-10-23T09:16:50.174Z,16.00
2022-10-23T09:19:26.415Z,16.01
2022-10-23T09:21:55.690Z,15.96
2022-10-23T09:24:26.178Z,16.00
2022-10-23T09:26:54.369Z,16.14
2022-10-23T09:29:28.651Z,16.07
2022-10-23T09:31:58.538Z,16.15
2022-10-23T09:34:29.168Z,15.98
2022-10-23T09:37:03.859Z,15.88
2022-10-23T09:39:34.155Z,15.84
2022-10-23T09:42:13.946Z,15.75
2022-10-23T09:44:48.841Z,15.73
2022-10-23T09:47:20.756Z,15.68
2022-10-23T09:49:58.831Z,15.63
2022-10-23T09:52:35.924Z,15.66
2022-10-23T09:55:18.988Z,15.63
2022-10-23T09:57:47.611Z,15.60
2022-10-23T10:00:18.531Z,15.57
2022-10-23T10:02:55.587Z,15.65
2022-10-23T10:05:25.288Z,15.74
2022-10-23T10:08:15.095Z,15.71
2022-10-23T10:10:50.325Z,15.74
2022-10-23T10:13:37.784Z,15.87
2022-10-23T10:16:20.131Z,15.89
2022-10-23T10:18:56.386Z,15.71
2022-10-23T10:21:42.475Z,15.85
2022-10-23T10:24:24.140Z,15.91
2022-10-23T10:26:57.263Z,15.93
2022-10-23T10:29:43.521Z,15.97
2022-10-23T10:33:06.672Z,15.85
2022-10-23T10:35:37.592Z,16.53
2022-10-23T10:38:32.244Z,16.88
2022-10-23T10:41:14.361Z,17.21
2022-10-23T10:44:09.623Z,17.56
2022-10-23T10:46:51.175Z,17.55
2022-10-23T10:49:43.231Z,17.43
2022-10-23T10:52:33.716Z,17.40
2022-10-23T10:55:16.442Z,17.47
2022-10-23T10:57:50.383Z,17.85
2022-10-23T11:00:21.324Z,17.95
2022-10-23T11:02:54.138Z,17.85
2022-10-23T11:05:38.921Z,17.84
2022-10-23T11:08:18.189Z,17.72
2022-10-23T11:10:49.525Z,17.58
2022-10-23T11:13:35.308Z,17.58
2022-10-23T11:16:30.168Z,17.53
2022-10-23T11:19:35.611Z,17.34
2022-10-23T11:22:24.619Z,17.09
2022-10-23T11:25:29.879Z,16.92
2022-10-23T11:28:20.161Z,16.92
2022-10-23T11:31:10.938Z,16.88
2022-10-23T11:34:08.891Z,16.92
2022-10-23T11:36:42.972Z,16.87
2022-10-23T11:39:23.636Z,17.07
2022-10-23T11:41:56.463Z,17.05
2022-10-23T11:44:26.618Z,16.96
2022-10-23T11:47:39.549Z,16.93
2022-10-23T11:50:28.152Z,16.86
2022-10-23T11:53:13.760Z,16.84
2022-10-23T11:56:06.769Z,16.83
2022-10-23T12:01:44.326Z,16.79
2022-10-23T12:04:15.091Z,16.84
2022-10-23T12:06:47.621Z,16.82
2022-10-23T12:09:36.222Z,16.78
2022-10-23T12:12:09.540Z,16.73
2022-10-23T12:14:38.995Z,16.77
2022-10-23T12:17:24.984Z,16.62
2022-10-23T12:19:55.878Z,16.57
2022-10-23T12:22:30.863Z,16.46
2022-10-23T12:25:17.318Z,16.34
2022-10-23T12:27:57.246Z,16.44
2022-10-23T12:31:02.935Z,16.63
2022-10-23T12:33:56.199Z,16.75
2022-10-23T12:36:36.222Z,16.85
2022-10-23T12:39:03.694Z,16.74
2022-10-23T12:41:34.801Z,16.78
2022-10-23T12:44:04.939Z,16.88
2022-10-23T12:46:41.700Z,17.00
2022-10-23T12:49:15.661Z,17.14
2022-10-23T12:51:43.806Z,17.31
2022-10-23T12:54:21.639Z,17.60
2022-10-23T12:56:49.850Z,17.79
2022-10-23T12:59:23.342Z,17.96
2022-10-23T13:01:53.025Z,17.77
2022-10-23T13:04:31.272Z,17.52
2022-10-23T13:07:02.148Z,17.53
2022-10-23T13:09:42.264Z,17.43
2022-10-23T13:12:22.509Z,17.37
2022-10-23T13:15:06.945Z,17.27
2022-10-23T13:17:39.126Z,17.23
2022-10-23T13:20:18.789Z,17.27
2022-10-23T13:22:59.431Z,17.22
2022-10-23T13:25:33.480Z,17.01
2022-10-23T13:28:23.030Z,17.10
2022-10-23T13:31:22.528Z,17.15
2022-10-23T13:34:23.578Z,17.09
2022-10-23T13:37:01.187Z,17.03
2022-10-23T13:39:33.623Z,17.09
2022-10-23T13:42:11.841Z,17.03
2022-10-23T13:44:40.742Z,17.00
2022-10-23T13:47:16.028Z,16.95
2022-10-23T13:49:43.755Z,16.92
2022-10-23T13:52:23.547Z,16.88
2022-10-23T13:54:51.284Z,16.70
2022-10-23T13:57:18.709Z,16.64
2022-10-23T13:59:46.096Z,16.57
2022-10-23T14:02:24.357Z,16.56
2022-10-23T14:04:52.213Z,16.51
2022-10-23T14:07:19.661Z,16.51
2022-10-23T14:09:47.474Z,16.46
2022-10-23T14:12:16.871Z,16.39
2022-10-23T14:14:44.304Z,16.39
2022-10-23T14:17:11.785Z,16.36
2022-10-23T14:19:39.513Z,16.35
2022-10-23T14:22:07.080Z,16.36
2022-10-23T14:24:35.140Z,16.40
2022-10-23T14:27:03.383Z,16.37
2022-10-23T14:29:31.483Z,16.40
2022-10-23T14:31:59.143Z,16.42
2022-10-23T14:34:26.877Z,16.46
2022-10-23T14:37:07.983Z,16.48
2022-10-23T14:39:36.717Z,16.44
2022-10-23T14:42:04.325Z,16.47
2022-10-23T14:44:31.806Z,16.43
2022-10-23T14:47:00.143Z,16.46
2022-10-23T14:49:27.561Z,16.42
2022-10-23T14:51:54.973Z,16.40
2022-10-23T14:54:22.718Z,16.37
2022-10-23T14:56:50.074Z,16.39
2022-10-23T14:59:17.505Z,16.39
2022-10-23T15:01:48.218Z,16.33
2022-10-23T15:04:16.545Z,16.36
2022-10-23T15:06:45.120Z,16.31
2022-10-23T15:09:13.694Z,16.30
2022-10-23T15:11:41.434Z,16.50
2022-10-23T15:14:09.032Z,16.46
2022-10-23T15:16:41.469Z,16.42
2022-10-23T15:19:18.106Z,16.41
2022-10-23T15:21:47.990Z,16.46
2022-10-23T15:24:16.858Z,16.47
2022-10-23T15:26:45.540Z,16.46
2022-10-23T15:29:14.875Z,16.48
2022-10-23T15:31:45.353Z,16.50
2022-10-23T15:34:19.546Z,16.45
2022-10-23T15:36:47.938Z,16.45
2022-10-23T15:39:18.532Z,16.43
2022-10-23T15:41:46.135Z,16.37
2022-10-23T15:44:17.331Z,16.37
2022-10-23T15:46:45.198Z,16.21
2022-10-23T15:49:13.195Z,16.21
2022-10-23T15:51:42.062Z,16.19
2022-10-23T15:54:16.613Z,16.09
2022-10-23T15:56:48.021Z,16.06
2022-10-23T15:59:17.059Z,16.02
2022-10-23T16:01:44.638Z,15.93
2022-10-23T16:04:13.080Z,15.87
2022-10-23T16:06:40.608Z,15.86
2022-10-23T16:09:08.265Z,15.77
2022-10-23T16:11:37.724Z,15.74
2022-10-23T16:14:06.125Z,15.71
2022-10-23T16:16:34.225Z,15.73
2022-10-23T16:19:03.788Z,15.69
2022-10-23T16:21:36.243Z,15.65
2022-10-23T16:24:07.769Z,15.63
2022-10-23T16:26:36.127Z,15.61
2022-10-23T16:29:06.384Z,15.57
2022-10-23T16:31:34.462Z,15.54
2022-10-23T16:34:05.144Z,15.52
2022-10-23T16:36:39.412Z,15.52
2022-10-23T16:39:10.202Z,15.53
2022-10-23T16:41:51.174Z,15.49
2022-10-23T16:44:18.661Z,15.47
2022-10-23T16:46:47.982Z,15.44
2022-10-23T16:49:15.456Z,15.35
2022-10-23T16:51:42.865Z,15.29
2022-10-23T16:54:10.746Z,15.18
2022-10-23T16:56:38.308Z,15.07
2022-10-23T16:59:05.763Z,15.02
2022-10-23T17:01:34.078Z,14.98
2022-10-23T17:04:01.671Z,14.94
2022-10-23T17:06:32.529Z,14.90
2022-10-23T17:09:01.377Z,14.92
2022-10-23T17:11:33.871Z,14.89
2022-10-23T17:14:04.595Z,14.94
2022-10-23T17:16:44.602Z,14.97
2022-10-23T17:19:20.711Z,14.96
2022-10-23T17:21:48.479Z,14.93
2022-10-23T17:24:16.634Z,14.86
2022-10-23T17:26:44.046Z,14.79
2022-10-23T17:29:15.092Z,14.75
2022-10-23T17:31:45.667Z,14.76
2022-10-23T17:34:18.307Z,14.73
2022-10-23T17:36:49.411Z,14.77
2022-10-23T17:39:20.806Z,14.77
2022-10-23T17:41:48.659Z,14.70
2022-10-23T17:44:17.755Z,14.69
2022-10-23T17:46:53.013Z,14.66
2022-10-23T17:49:21.456Z,14.62
2022-10-23T17:51:52.568Z,14.64
2022-10-23T17:54:20.596Z,14.69
2022-10-23T17:56:48.367Z,14.70
2022-10-23T17:59:18.868Z,14.70
2022-10-23T18:01:48.228Z,14.68
2022-10-23T18:04:19.453Z,14.60
2022-10-23T18:06:49.962Z,14.52
2022-10-23T18:09:18.704Z,14.46
2022-10-23T18:11:48.217Z,14.41
2022-10-23T18:14:18.551Z,14.33
2022-10-23T18:16:46.799Z,14.28
2022-10-23T18:19:17.224Z,14.24
2022-10-23T18:21:45.026Z,14.19
2022-10-23T18:24:12.797Z,14.23
2022-10-23T18:26:41.729Z,14.11
2022-10-23T18:29:10.772Z,14.11
2022-10-23T18:31:38.888Z,14.08
2022-10-23T18:34:08.884Z,14.00
2022-10-23T18:36:39.312Z,14.02
2022-10-23T18:39:09.560Z,13.96
2022-10-23T18:41:40.056Z,13.92
2022-10-23T18:44:08.473Z,13.92
2022-10-23T18:46:37.277Z,13.94
2022-10-23T18:49:04.896Z,13.88
2022-10-23T18:51:34.999Z,13.79
2022-10-23T18:54:14.058Z,13.81
2022-10-23T18:56:42.257Z,13.78
2022-10-23T18:59:15.633Z,13.77
2022-10-23T19:01:44.254Z,13.84
2022-10-23T19:04:14.120Z,13.77
2022-10-23T19:06:41.650Z,13.78
2022-10-23T19:09:10.462Z,13.74
2022-10-23T19:11:38.255Z,13.75
2022-10-23T19:14:05.773Z,13.69
2022-10-23T19:16:38.519Z,13.67
2022-10-23T19:19:17.810Z,13.72
2022-10-23T19:21:46.342Z,13.72
2022-10-23T19:24:18.333Z,13.67
2022-10-23T19:26:46.856Z,13.65
2022-10-23T19:29:20.071Z,13.70
2022-10-23T19:31:49.336Z,13.68
2022-10-23T19:34:19.995Z,13.59
2022-10-23T19:36:48.959Z,13.62
2022-10-23T19:39:16.968Z,13.55
2022-10-23T19:41:44.768Z,13.54
2022-10-23T19:44:14.730Z,13.56
2022-10-23T19:46:42.287Z,13.57
2022-10-23T19:49:10.264Z,13.60
2022-10-23T19:51:38.495Z,13.55
2022-10-23T19:54:06.806Z,13.55
2022-10-23T19:56:35.804Z,13.45
2022-10-23T19:59:03.707Z,13.41
2022-10-23T20:01:31.292Z,13.39
2022-10-23T20:03:59.186Z,13.39
2022-10-23T20:06:29.864Z,13.33
2022-10-23T20:08:57.436Z,13.35
2022-10-23T20:11:30.736Z,13.31
2022-10-23T20:13:58.456Z,13.33
2022-10-23T20:16:31.686Z,13.26
2022-10-23T20:19:02.721Z,13.25
2022-10-23T20:21:30.481Z,13.26
2022-10-23T20:23:59.219Z,13.19
2022-10-23T20:26:26.939Z,13.08
2022-10-23T20:28:55.997Z,13.02
2022-10-23T20:31:25.583Z,12.94
2022-10-23T20:33:53.646Z,12.99
2022-10-23T20:36:36.619Z,13.01
2022-10-23T20:39:09.916Z,12.99
2022-10-23T20:41:38.502Z,12.94
2022-10-23T20:44:09.518Z,12.86
2022-10-23T20:46:37.169Z,12.96
2022-10-23T20:49:04.928Z,12.95
2022-10-23T20:51:32.755Z,12.99
2022-10-23T20:54:00.242Z,13.07
2022-10-23T20:56:31.188Z,12.97
2022-10-23T20:59:07.458Z,12.95
2022-10-23T21:01:35.839Z,12.93
2022-10-23T21:04:03.651Z,12.95
2022-10-23T21:06:45.618Z,12.90
2022-10-23T21:09:21.835Z,12.92
2022-10-23T21:11:49.874Z,12.92
2022-10-23T21:14:17.262Z,12.98
2022-10-23T21:16:46.567Z,12.98
2022-10-23T21:19:15.848Z,12.94
2022-10-23T21:21:43.987Z,12.96
2022-10-23T21:24:16.127Z,12.97
2022-10-23T21:26:44.055Z,13.01
2022-10-23T21:29:18.976Z,13.04
2022-10-23T21:31:56.022Z,12.98
2022-10-23T21:34:25.356Z,12.98
2022-10-23T21:39:44.713Z,12.85
2022-10-23T21:42:13.796Z,12.81
2022-10-23T21:44:41.498Z,12.78
2022-10-23T21:47:09.215Z,12.73
2022-10-23T21:49:36.919Z,12.62
2022-10-23T21:52:04.991Z,12.63
2022-10-23T21:54:32.553Z,12.47
2022-10-23T21:56:59.986Z,12.52
2022-10-23T21:59:30.190Z,12.53
2022-10-23T22:01:59.582Z,12.53
2022-10-23T22:04:27.479Z,12.45
2022-10-23T22:06:55.034Z,12.50
2022-10-23T22:09:22.807Z,12.53
2022-10-23T22:11:52.166Z,12.55
2022-10-23T22:14:20.003Z,12.46
2022-10-23T22:16:48.062Z,12.53
2022-10-23T22:19:17.595Z,12.49
2022-10-23T22:21:45.740Z,12.63
2022-10-23T22:24:13.483Z,12.63
2022-10-23T22:26:47.511Z,12.56
2022-10-23T22:29:18.409Z,12.49
2022-10-23T22:31:48.882Z,12.47
2022-10-23T22:34:52.397Z,12.47
2022-10-23T22:37:21.028Z,12.44
2022-10-23T22:39:52.359Z,12.49
2022-10-23T22:42:20.607Z,12.55
2022-10-23T22:44:48.295Z,12.57
2022-10-23T22:47:15.666Z,12.64
2022-10-23T22:49:43.058Z,12.69
2022-10-23T22:52:10.728Z,12.75
2022-10-23T22:54:38.115Z,12.82
2022-10-23T22:57:05.563Z,12.70
2022-10-23T22:59:33.263Z,12.54
2022-10-23T23:02:00.763Z,12.61
2022-10-23T23:04:43.542Z,12.64
2022-10-23T23:07:12.723Z,12.68
2022-10-23T23:09:42.890Z,12.71
2022-10-23T23:12:13.470Z,12.74
2022-10-23T23:14:41.460Z,12.77
2022-10-23T23:17:09.836Z,12.68
2022-10-23T23:19:37.607Z,12.76
2022-10-23T23:22:05.350Z,12.90
2022-10-23T23:24:33.131Z,12.93
2022-10-23T23:27:00.839Z,13.08
2022-10-23T23:29:29.584Z,13.05
2022-10-23T23:31:57.335Z,13.01
2022-10-23T23:34:25.037Z,13.08
2022-10-23T23:36:52.461Z,12.96
2022-10-23T23:39:19.866Z,12.96
2022-10-23T23:41:47.548Z,12.97
2022-10-23T23:44:14.982Z,12.97
2022-10-23T23:46:42.383Z,13.01
2022-10-23T23:49:10.085Z,13.15
2022-10-23T23:51:37.568Z,13.18
2022-10-23T23:54:05.005Z,13.22
2022-10-23T23:56:32.722Z,13.33
2022-10-23T23:59:00.111Z,13.22
